createdAt,value
2016-12-07T00:00:00.397Z,23.37
2016-12-07T00:00:15.148Z,23.4
2016-12-07T00:00:30.591Z,23.35
2016-12-07T00:00:45.657Z,23.32
2016-12-07T00:01:00.529Z,23.35
2016-12-07T00:01:15.315Z,23.35
2016-12-07T00:01:30.013Z,23.38
2016-12-07T00:01:44.625Z,23.32
2016-12-07T00:01:59.101Z,23.34
2016-12-07T00:02:13.708Z,23.37
2016-12-07T00:02:28.368Z,23.34
2016-12-07T00:02:43.034Z,23.29
2016-12-07T00:02:57.594Z,23.29
2016-12-07T00:03:12.165Z,23.29
2016-12-07T00:03:26.867Z,23.29
2016-12-07T00:03:41.265Z,23.29
2016-12-07T00:03:55.776Z,23.28
2016-12-07T00:04:10.424Z,23.19
2016-12-07T00:04:25.044Z,23.25
2016-12-07T00:04:39.810Z,23.32
2016-12-07T00:04:54.543Z,23.29
2016-12-07T00:05:09.194Z,23.24
2016-12-07T00:05:23.825Z,23.19
2016-12-07T00:05:38.419Z,23.32
2016-12-07T00:05:53.217Z,23.22
2016-12-07T00:06:08.008Z,23.28
2016-12-07T00:06:22.632Z,23.22
2016-12-07T00:06:37.099Z,23.22
2016-12-07T00:06:51.879Z,23.25
2016-12-07T00:07:06.559Z,23.21
2016-12-07T00:07:21.306Z,23.18
2016-12-07T00:07:35.922Z,23.19
2016-12-07T00:07:50.361Z,23.25
2016-12-07T00:08:04.930Z,23.25
2016-12-07T00:08:19.600Z,23.22
2016-12-07T00:08:34.151Z,23.18
2016-12-07T00:08:48.761Z,23.19
2016-12-07T00:09:03.606Z,23.19
2016-12-07T00:09:18.368Z,23.16
2016-12-07T00:09:33.004Z,23.22
2016-12-07T00:09:47.577Z,23.12
2016-12-07T00:10:02.207Z,23.15
2016-12-07T00:10:17.177Z,23.1
2016-12-07T00:10:31.790Z,23.22
2016-12-07T00:10:46.527Z,23.16
2016-12-07T00:11:01.209Z,23.21
2016-12-07T00:11:16.171Z,23.16
2016-12-07T00:11:30.832Z,23.14
2016-12-07T00:11:45.415Z,23.16
2016-12-07T00:12:00.044Z,23.14
2016-12-07T00:12:14.629Z,23.24
2016-12-07T00:12:29.495Z,23.21
2016-12-07T00:12:44.271Z,23.18
2016-12-07T00:12:58.795Z,23.07
2016-12-07T00:13:13.563Z,23.12
2016-12-07T00:13:28.155Z,23.18
2016-12-07T00:13:42.892Z,23.14
2016-12-07T00:13:57.432Z,23.07
2016-12-07T00:14:12.331Z,23.12
2016-12-07T00:14:26.949Z,23.09
2016-12-07T00:14:41.597Z,23
2016-12-07T00:14:56.238Z,23.04
2016-12-07T00:15:10.980Z,23.18
2016-12-07T00:15:25.720Z,23.12
2016-12-07T00:15:40.322Z,23.16
2016-12-07T00:15:55.163Z,23.21
2016-12-07T00:16:10.057Z,23.19
2016-12-07T00:16:24.745Z,23.12
2016-12-07T00:16:39.402Z,23.09
2016-12-07T00:16:54.055Z,23.1
2016-12-07T00:17:08.574Z,23.12
2016-12-07T00:17:23.123Z,23.18
2016-12-07T00:17:37.604Z,23.18
2016-12-07T00:17:52.122Z,23.21
2016-12-07T00:18:06.720Z,23.12
2016-12-07T00:18:21.230Z,23.16
2016-12-07T00:18:35.743Z,23.1
2016-12-07T00:18:50.244Z,23.18
2016-12-07T00:19:04.844Z,23.16
2016-12-07T00:19:19.646Z,23.1
2016-12-07T00:19:34.435Z,23.15
2016-12-07T00:19:49.243Z,23.19
2016-12-07T00:20:03.974Z,23.15
2016-12-07T00:20:18.448Z,23.16
2016-12-07T00:20:33.023Z,23.24
2016-12-07T00:20:47.589Z,23.21
2016-12-07T00:21:02.254Z,23.15
2016-12-07T00:21:16.804Z,23.19
2016-12-07T00:21:31.351Z,23.15
2016-12-07T00:21:46.014Z,23.15
2016-12-07T00:22:00.561Z,23.15
2016-12-07T00:22:15.040Z,23.22
2016-12-07T00:22:29.880Z,23.18
2016-12-07T00:22:44.552Z,23.18
2016-12-07T00:22:59.247Z,23.19
2016-12-07T00:23:13.749Z,23.19
2016-12-07T00:23:28.203Z,23.19
2016-12-07T00:23:42.837Z,23.24
2016-12-07T00:23:57.297Z,23.29
2016-12-07T00:24:11.870Z,23.25
2016-12-07T00:24:26.283Z,23.21
2016-12-07T00:24:40.805Z,23.19
2016-12-07T00:24:55.327Z,23.24
2016-12-07T00:25:09.773Z,23.37
2016-12-07T00:25:24.779Z,23.25
2016-12-07T00:25:39.542Z,23.26
2016-12-07T00:25:54.042Z,23.21
2016-12-07T00:26:08.589Z,23.14
2016-12-07T00:26:23.090Z,23.19
2016-12-07T00:26:37.657Z,23.25
2016-12-07T00:26:52.105Z,23.09
2016-12-07T00:27:06.831Z,23.19
2016-12-07T00:27:21.329Z,23.1
2016-12-07T00:27:35.799Z,23.06
2016-12-07T00:27:50.396Z,23.03
2016-12-07T00:28:05.054Z,23.14
2016-12-07T00:28:19.617Z,23
2016-12-07T00:28:34.099Z,22.86
2016-12-07T00:28:48.577Z,22.84
2016-12-07T00:29:03.083Z,22.94
2016-12-07T00:29:17.530Z,22.86
2016-12-07T00:29:32.204Z,22.85
2016-12-07T00:29:46.861Z,22.81
2016-12-07T00:30:01.472Z,22.81
2016-12-07T00:30:16.120Z,22.81
2016-12-07T00:30:30.527Z,22.84
2016-12-07T00:30:45.240Z,22.76
2016-12-07T00:30:59.664Z,22.81
2016-12-07T00:31:14.126Z,22.78
2016-12-07T00:31:28.702Z,22.79
2016-12-07T00:31:43.171Z,22.81
2016-12-07T00:31:58.042Z,22.71
2016-12-07T00:32:12.715Z,22.69
2016-12-07T00:32:27.328Z,22.67
2016-12-07T00:32:42.030Z,22.64
2016-12-07T00:32:56.502Z,22.54
2016-12-07T00:33:11.122Z,22.51
2016-12-07T00:33:25.653Z,22.59
2016-12-07T00:33:40.163Z,22.52
2016-12-07T00:33:54.751Z,22.46
2016-12-07T00:34:09.325Z,22.42
2016-12-07T00:34:23.838Z,22.34
2016-12-07T00:34:38.499Z,22.39
2016-12-07T00:34:53.100Z,22.3
2016-12-07T00:35:07.803Z,22.36
2016-12-07T00:35:22.307Z,22.38
2016-12-07T00:35:36.876Z,22.29
2016-12-07T00:35:51.516Z,22.26
2016-12-07T00:36:05.909Z,22.27
2016-12-07T00:36:20.571Z,22.26
2016-12-07T00:36:35.087Z,22.24
2016-12-07T00:36:49.709Z,22.24
2016-12-07T00:37:04.378Z,22.24
2016-12-07T00:37:18.856Z,22.18
2016-12-07T00:37:33.142Z,22.22
2016-12-07T00:37:47.497Z,22.2
2016-12-07T00:38:02.036Z,22.23
2016-12-07T00:38:16.544Z,22.23
2016-12-07T00:38:30.891Z,22.24
2016-12-07T00:38:45.335Z,22.22
2016-12-07T00:38:59.821Z,22.14
2016-12-07T00:39:14.240Z,22.14
2016-12-07T00:39:28.703Z,22.16
2016-12-07T00:39:43.295Z,22.15
2016-12-07T00:39:57.767Z,22.15
2016-12-07T00:40:12.201Z,22.14
2016-12-07T00:40:26.614Z,22.15
2016-12-07T00:40:41.669Z,22.08
2016-12-07T00:40:56.008Z,22.14
2016-12-07T00:41:10.366Z,22.15
2016-12-07T00:41:24.736Z,22.12
2016-12-07T00:41:39.233Z,22.09
2016-12-07T00:41:53.697Z,22.07
2016-12-07T00:42:08.122Z,22.08
2016-12-07T00:42:22.622Z,22.14
2016-12-07T00:42:37.011Z,22.12
2016-12-07T00:42:51.393Z,22.15
2016-12-07T00:43:05.916Z,22.07
2016-12-07T00:43:20.361Z,22.09
2016-12-07T00:43:34.732Z,22.12
2016-12-07T00:43:49.093Z,22.11
2016-12-07T00:44:03.597Z,22.12
2016-12-07T00:44:18.184Z,22.11
2016-12-07T00:44:32.696Z,22.07
2016-12-07T00:44:47.096Z,22.08
2016-12-07T00:45:01.527Z,22.09
2016-12-07T00:45:15.975Z,22.08
2016-12-07T00:45:30.457Z,22.07
2016-12-07T00:45:44.910Z,21.96
2016-12-07T00:45:59.362Z,21.99
2016-12-07T00:46:13.695Z,21.99
2016-12-07T00:46:28.071Z,21.96
2016-12-07T00:46:42.452Z,21.89
2016-12-07T00:46:56.893Z,21.89
2016-12-07T00:47:11.329Z,21.89
2016-12-07T00:47:25.696Z,21.86
2016-12-07T00:47:40.137Z,21.9
2016-12-07T00:47:54.601Z,21.9
2016-12-07T00:48:09.070Z,21.92
2016-12-07T00:48:23.551Z,21.85
2016-12-07T00:48:37.913Z,21.83
2016-12-07T00:48:52.308Z,21.83
2016-12-07T00:49:06.686Z,21.89
2016-12-07T00:49:21.093Z,21.85
2016-12-07T00:49:35.476Z,21.85
2016-12-07T00:49:49.834Z,21.86
2016-12-07T00:50:04.286Z,21.86
2016-12-07T00:50:18.751Z,21.89
2016-12-07T00:50:33.227Z,21.89
2016-12-07T00:50:47.620Z,21.96
2016-12-07T00:51:02.005Z,21.85
2016-12-07T00:51:16.393Z,21.89
2016-12-07T00:51:30.773Z,21.9
2016-12-07T00:51:45.169Z,21.92
2016-12-07T00:51:59.527Z,21.92
2016-12-07T00:52:13.924Z,21.94
2016-12-07T00:52:28.306Z,21.96
2016-12-07T00:52:42.761Z,21.99
2016-12-07T00:52:57.113Z,21.94
2016-12-07T00:53:11.472Z,22.02
2016-12-07T00:53:25.835Z,22
2016-12-07T00:53:40.144Z,21.97
2016-12-07T00:53:54.560Z,21.93
2016-12-07T00:54:08.974Z,21.97
2016-12-07T00:54:23.402Z,21.94
2016-12-07T00:54:37.832Z,21.94
2016-12-07T00:54:52.162Z,21.97
2016-12-07T00:55:06.491Z,21.94
2016-12-07T00:55:20.828Z,21.94
2016-12-07T00:55:35.228Z,21.94
2016-12-07T00:55:49.882Z,22
2016-12-07T00:56:04.260Z,21.97
2016-12-07T00:56:18.666Z,21.92
2016-12-07T00:56:33.057Z,22.02
2016-12-07T00:56:47.484Z,21.99
2016-12-07T00:57:01.839Z,22.05
2016-12-07T00:57:16.228Z,22.08
2016-12-07T00:57:30.570Z,22.08
2016-12-07T00:57:45.014Z,22.16
2016-12-07T00:57:59.395Z,22.07
2016-12-07T00:58:13.759Z,22.16
2016-12-07T00:58:28.225Z,22.15
2016-12-07T00:58:42.559Z,22.22
2016-12-07T00:58:56.940Z,22.11
2016-12-07T00:59:11.317Z,22.09
2016-12-07T00:59:25.699Z,22.11
2016-12-07T00:59:40.089Z,22.02
2016-12-07T00:59:54.481Z,22
2016-12-07T01:00:08.861Z,22.05
2016-12-07T01:00:23.144Z,21.99
2016-12-07T01:00:37.469Z,21.96
2016-12-07T01:00:51.875Z,21.83
2016-12-07T01:01:06.255Z,21.9
2016-12-07T01:01:20.671Z,21.86
2016-12-07T01:01:35.035Z,21.85
2016-12-07T01:01:49.324Z,21.85
2016-12-07T01:02:03.740Z,21.85
2016-12-07T01:02:18.091Z,21.85
2016-12-07T01:02:32.542Z,21.82
2016-12-07T01:02:46.947Z,21.83
2016-12-07T01:03:01.302Z,21.86
2016-12-07T01:03:15.694Z,21.86
2016-12-07T01:03:30.067Z,21.86
2016-12-07T01:03:44.418Z,21.83
2016-12-07T01:03:58.764Z,21.86
2016-12-07T01:04:13.053Z,21.86
2016-12-07T01:04:27.405Z,21.82
2016-12-07T01:04:41.742Z,21.86
2016-12-07T01:04:56.140Z,21.77
2016-12-07T01:05:10.543Z,21.77
2016-12-07T01:05:24.861Z,21.71
2016-12-07T01:05:39.253Z,21.7
2016-12-07T01:05:53.668Z,21.74
2016-12-07T01:06:08.021Z,21.66
2016-12-07T01:06:22.348Z,21.67
2016-12-07T01:06:36.663Z,21.64
2016-12-07T01:06:51.042Z,21.66
2016-12-07T01:07:05.451Z,21.55
2016-12-07T01:07:19.870Z,21.58
2016-12-07T01:07:34.293Z,21.59
2016-12-07T01:07:48.618Z,21.52
2016-12-07T01:08:02.943Z,21.49
2016-12-07T01:08:17.288Z,21.45
2016-12-07T01:08:31.600Z,21.46
2016-12-07T01:08:45.918Z,21.48
2016-12-07T01:09:00.305Z,21.49
2016-12-07T01:09:14.617Z,21.48
2016-12-07T01:09:28.949Z,21.43
2016-12-07T01:09:43.406Z,21.45
2016-12-07T01:09:57.861Z,21.46
2016-12-07T01:10:12.369Z,21.46
2016-12-07T01:10:26.807Z,21.52
2016-12-07T01:10:41.144Z,21.51
2016-12-07T01:10:56.205Z,21.41
2016-12-07T01:11:10.672Z,21.51
2016-12-07T01:11:25.024Z,21.43
2016-12-07T01:11:39.412Z,21.46
2016-12-07T01:11:53.773Z,21.37
2016-12-07T01:12:08.187Z,21.43
2016-12-07T01:12:22.668Z,21.38
2016-12-07T01:12:37.056Z,21.31
2016-12-07T01:12:51.820Z,21.37
2016-12-07T01:13:06.181Z,21.46
2016-12-07T01:13:20.665Z,21.37
2016-12-07T01:13:34.968Z,21.34
2016-12-07T01:13:49.336Z,21.34
2016-12-07T01:14:03.750Z,21.37
2016-12-07T01:14:18.115Z,21.27
2016-12-07T01:14:32.440Z,21.41
2016-12-07T01:14:46.943Z,21.33
2016-12-07T01:15:01.353Z,21.36
2016-12-07T01:15:15.915Z,21.33
2016-12-07T01:15:30.297Z,21.33
2016-12-07T01:15:44.738Z,21.37
2016-12-07T01:15:59.255Z,21.37
2016-12-07T01:16:13.701Z,21.37
2016-12-07T01:16:28.097Z,21.43
2016-12-07T01:16:42.653Z,21.4
2016-12-07T01:16:56.984Z,21.46
2016-12-07T01:17:11.289Z,21.45
2016-12-07T01:17:25.629Z,21.48
2016-12-07T01:17:39.949Z,21.48
2016-12-07T01:17:54.278Z,21.51
2016-12-07T01:18:08.579Z,21.43
2016-12-07T01:18:22.908Z,21.51
2016-12-07T01:18:37.304Z,21.53
2016-12-07T01:18:51.606Z,21.53
2016-12-07T01:19:05.961Z,21.53
2016-12-07T01:19:20.283Z,21.58
2016-12-07T01:19:34.543Z,21.64
2016-12-07T01:19:48.831Z,21.62
2016-12-07T01:20:03.172Z,21.67
2016-12-07T01:20:17.502Z,21.68
2016-12-07T01:20:31.739Z,21.7
2016-12-07T01:20:46.125Z,21.78
2016-12-07T01:21:00.456Z,21.8
2016-12-07T01:21:14.859Z,21.73
2016-12-07T01:21:29.183Z,21.74
2016-12-07T01:21:43.566Z,21.7
2016-12-07T01:21:57.887Z,21.85
2016-12-07T01:22:12.209Z,21.82
2016-12-07T01:22:26.554Z,21.83
2016-12-07T01:22:40.949Z,21.85
2016-12-07T01:22:55.332Z,21.85
2016-12-07T01:23:09.677Z,21.85
2016-12-07T01:23:24.032Z,21.9
2016-12-07T01:23:38.449Z,21.76
2016-12-07T01:23:52.814Z,21.85
2016-12-07T01:24:07.133Z,21.93
2016-12-07T01:24:21.417Z,21.71
2016-12-07T01:24:35.816Z,21.73
2016-12-07T01:24:50.184Z,21.7
2016-12-07T01:25:04.777Z,21.8
2016-12-07T01:25:19.163Z,21.8
2016-12-07T01:25:33.557Z,21.8
2016-12-07T01:25:47.945Z,21.73
2016-12-07T01:26:02.756Z,21.73
2016-12-07T01:26:17.121Z,21.68
2016-12-07T01:26:31.552Z,21.82
2016-12-07T01:26:45.986Z,21.82
2016-12-07T01:27:00.377Z,21.8
2016-12-07T01:27:14.725Z,21.82
2016-12-07T01:27:29.076Z,21.76
2016-12-07T01:27:43.404Z,21.86
2016-12-07T01:27:57.791Z,21.8
2016-12-07T01:28:12.157Z,21.85
2016-12-07T01:28:26.517Z,21.83
2016-12-07T01:28:40.895Z,21.83
2016-12-07T01:28:55.227Z,21.86
2016-12-07T01:29:09.584Z,21.85
2016-12-07T01:29:23.981Z,21.89
2016-12-07T01:29:38.353Z,21.85
2016-12-07T01:29:52.691Z,21.85
2016-12-07T01:30:06.988Z,21.86
2016-12-07T01:30:21.383Z,21.83
2016-12-07T01:30:35.803Z,21.9
2016-12-07T01:30:50.172Z,21.82
2016-12-07T01:31:04.534Z,21.89
2016-12-07T01:31:18.853Z,21.83
2016-12-07T01:31:33.226Z,21.89
2016-12-07T01:31:47.613Z,21.85
2016-12-07T01:32:02.002Z,21.85
2016-12-07T01:32:16.400Z,21.85
2016-12-07T01:32:30.786Z,21.83
2016-12-07T01:32:45.148Z,21.83
2016-12-07T01:32:59.587Z,21.89
2016-12-07T01:33:13.978Z,21.86
2016-12-07T01:33:28.364Z,21.92
2016-12-07T01:33:42.746Z,21.86
2016-12-07T01:33:57.130Z,21.89
2016-12-07T01:34:11.512Z,21.85
2016-12-07T01:34:25.834Z,21.9
2016-12-07T01:34:40.172Z,21.82
2016-12-07T01:34:54.552Z,21.86
2016-12-07T01:35:08.956Z,21.9
2016-12-07T01:35:23.238Z,21.8
2016-12-07T01:35:37.550Z,21.76
2016-12-07T01:35:51.878Z,21.76
2016-12-07T01:36:06.219Z,21.7
2016-12-07T01:36:20.572Z,21.7
2016-12-07T01:36:34.980Z,21.76
2016-12-07T01:36:49.360Z,21.71
2016-12-07T01:37:03.725Z,21.74
2016-12-07T01:37:18.097Z,21.7
2016-12-07T01:37:32.463Z,21.71
2016-12-07T01:37:46.844Z,21.77
2016-12-07T01:38:01.203Z,21.76
2016-12-07T01:38:15.527Z,21.78
2016-12-07T01:38:29.855Z,21.74
2016-12-07T01:38:44.160Z,21.7
2016-12-07T01:38:58.470Z,21.74
2016-12-07T01:39:12.769Z,21.77
2016-12-07T01:39:27.117Z,21.74
2016-12-07T01:39:41.483Z,21.73
2016-12-07T01:39:55.907Z,21.76
2016-12-07T01:40:10.254Z,21.73
2016-12-07T01:40:24.560Z,21.7
2016-12-07T01:40:38.954Z,21.68
2016-12-07T01:40:53.328Z,21.62
2016-12-07T01:41:08.170Z,21.66
2016-12-07T01:41:22.505Z,21.66
2016-12-07T01:41:36.807Z,21.7
2016-12-07T01:41:51.072Z,21.7
2016-12-07T01:42:05.438Z,21.66
2016-12-07T01:42:19.861Z,21.58
2016-12-07T01:42:34.230Z,21.53
2016-12-07T01:42:48.662Z,21.59
2016-12-07T01:43:03.021Z,21.66
2016-12-07T01:43:17.383Z,21.62
2016-12-07T01:43:31.752Z,21.66
2016-12-07T01:43:46.154Z,21.59
2016-12-07T01:44:00.474Z,21.61
2016-12-07T01:44:14.821Z,21.67
2016-12-07T01:44:29.280Z,21.66
2016-12-07T01:44:43.687Z,21.66
2016-12-07T01:44:58.016Z,21.56
2016-12-07T01:45:12.448Z,21.59
2016-12-07T01:45:26.857Z,21.53
2016-12-07T01:45:41.198Z,21.55
2016-12-07T01:45:55.504Z,21.55
2016-12-07T01:46:09.876Z,21.52
2016-12-07T01:46:24.231Z,21.51
2016-12-07T01:46:38.583Z,21.43
2016-12-07T01:46:52.954Z,21.41
2016-12-07T01:47:07.416Z,21.46
2016-12-07T01:47:21.772Z,21.48
2016-12-07T01:47:36.171Z,21.37
2016-12-07T01:47:50.536Z,21.37
2016-12-07T01:48:04.870Z,21.31
2016-12-07T01:48:19.190Z,21.37
2016-12-07T01:48:33.565Z,21.33
2016-12-07T01:48:47.890Z,21.37
2016-12-07T01:49:02.271Z,21.37
2016-12-07T01:49:16.655Z,21.38
2016-12-07T01:49:31.032Z,21.37
2016-12-07T01:49:45.358Z,21.43
2016-12-07T01:49:59.694Z,21.38
2016-12-07T01:50:14.044Z,21.38
2016-12-07T01:50:28.367Z,21.37
2016-12-07T01:50:42.737Z,21.31
2016-12-07T01:50:57.171Z,21.27
2016-12-07T01:51:11.506Z,21.3
2016-12-07T01:51:25.895Z,21.23
2016-12-07T01:51:40.275Z,21.27
2016-12-07T01:51:54.636Z,21.33
2016-12-07T01:52:08.983Z,21.27
2016-12-07T01:52:23.331Z,21.28
2016-12-07T01:52:37.731Z,21.34
2016-12-07T01:52:52.121Z,21.25
2016-12-07T01:53:06.463Z,21.23
2016-12-07T01:53:20.841Z,21.3
2016-12-07T01:53:35.199Z,21.27
2016-12-07T01:53:49.619Z,21.22
2016-12-07T01:54:04.022Z,21.38
2016-12-07T01:54:18.425Z,21.25
2016-12-07T01:54:32.825Z,21.31
2016-12-07T01:54:47.202Z,21.38
2016-12-07T01:55:01.583Z,21.33
2016-12-07T01:55:16.009Z,21.36
2016-12-07T01:55:30.461Z,21.38
2016-12-07T01:55:44.790Z,21.41
2016-12-07T01:55:59.141Z,21.45
2016-12-07T01:56:13.730Z,21.43
2016-12-07T01:56:28.146Z,21.48
2016-12-07T01:56:42.493Z,21.46
2016-12-07T01:56:56.842Z,21.45
2016-12-07T01:57:11.192Z,21.4
2016-12-07T01:57:25.569Z,21.33
2016-12-07T01:57:39.934Z,21.36
2016-12-07T01:57:54.257Z,21.37
2016-12-07T01:58:08.560Z,21.34
2016-12-07T01:58:23.022Z,21.37
2016-12-07T01:58:37.334Z,21.36
2016-12-07T01:58:51.693Z,21.28
2016-12-07T01:59:06.081Z,21.25
2016-12-07T01:59:20.377Z,21.27
2016-12-07T01:59:34.699Z,21.33
2016-12-07T01:59:49.012Z,21.27
2016-12-07T02:00:03.398Z,21.3
2016-12-07T02:00:17.738Z,21.25
2016-12-07T02:00:32.086Z,21.31
2016-12-07T02:00:46.397Z,21.33
2016-12-07T02:01:00.778Z,21.37
2016-12-07T02:01:15.154Z,21.33
2016-12-07T02:01:29.502Z,21.33
2016-12-07T02:01:43.889Z,21.28
2016-12-07T02:01:58.183Z,21.31
2016-12-07T02:02:12.566Z,21.36
2016-12-07T02:02:26.884Z,21.25
2016-12-07T02:02:41.250Z,21.36
2016-12-07T02:02:55.683Z,21.3
2016-12-07T02:03:10.089Z,21.37
2016-12-07T02:03:24.474Z,21.41
2016-12-07T02:03:38.864Z,21.37
2016-12-07T02:03:53.200Z,21.3
2016-12-07T02:04:07.600Z,21.31
2016-12-07T02:04:22.018Z,21.31
2016-12-07T02:04:36.325Z,21.27
2016-12-07T02:04:50.712Z,21.3
2016-12-07T02:05:05.177Z,21.21
2016-12-07T02:05:19.505Z,21.12
2016-12-07T02:05:33.864Z,21.15
2016-12-07T02:05:48.229Z,21.13
2016-12-07T02:06:02.526Z,21.06
2016-12-07T02:06:16.864Z,21.13
2016-12-07T02:06:31.230Z,21.04
2016-12-07T02:06:45.558Z,21.03
2016-12-07T02:06:59.912Z,21.03
2016-12-07T02:07:14.230Z,20.98
2016-12-07T02:07:28.586Z,20.98
2016-12-07T02:07:42.953Z,20.91
2016-12-07T02:07:57.380Z,20.9
2016-12-07T02:08:11.796Z,20.97
2016-12-07T02:08:26.103Z,20.93
2016-12-07T02:08:40.492Z,20.94
2016-12-07T02:08:54.781Z,20.86
2016-12-07T02:09:09.182Z,20.85
2016-12-07T02:09:23.551Z,20.88
2016-12-07T02:09:37.914Z,20.86
2016-12-07T02:09:52.295Z,20.83
2016-12-07T02:10:06.714Z,20.79
2016-12-07T02:10:21.071Z,20.79
2016-12-07T02:10:35.449Z,20.78
2016-12-07T02:10:49.730Z,20.79
2016-12-07T02:11:04.122Z,20.81
2016-12-07T02:11:19.045Z,20.78
2016-12-07T02:11:33.503Z,20.79
2016-12-07T02:11:48.616Z,20.78
2016-12-07T02:12:02.983Z,20.76
2016-12-07T02:12:17.341Z,20.83
2016-12-07T02:12:31.686Z,20.78
2016-12-07T02:12:45.994Z,20.82
2016-12-07T02:13:00.355Z,20.83
2016-12-07T02:13:14.720Z,20.82
2016-12-07T02:13:29.145Z,20.88
2016-12-07T02:13:43.513Z,20.74
2016-12-07T02:13:57.851Z,20.81
2016-12-07T02:14:12.271Z,20.78
2016-12-07T02:14:26.684Z,20.75
2016-12-07T02:14:41.018Z,20.74
2016-12-07T02:14:55.341Z,20.75
2016-12-07T02:15:09.762Z,20.74
2016-12-07T02:15:24.167Z,20.78
2016-12-07T02:15:38.513Z,20.75
2016-12-07T02:15:52.842Z,20.67
2016-12-07T02:16:07.269Z,20.72
2016-12-07T02:16:21.621Z,20.75
2016-12-07T02:16:36.292Z,20.76
2016-12-07T02:16:50.924Z,20.79
2016-12-07T02:17:05.381Z,20.76
2016-12-07T02:17:19.738Z,20.85
2016-12-07T02:17:34.173Z,20.81
2016-12-07T02:17:48.634Z,20.79
2016-12-07T02:18:03.071Z,20.85
2016-12-07T02:18:17.409Z,20.81
2016-12-07T02:18:31.811Z,20.76
2016-12-07T02:18:46.209Z,20.82
2016-12-07T02:19:00.537Z,20.78
2016-12-07T02:19:14.945Z,20.85
2016-12-07T02:19:29.282Z,20.82
2016-12-07T02:19:43.707Z,20.82
2016-12-07T02:19:58.101Z,20.82
2016-12-07T02:20:12.390Z,20.81
2016-12-07T02:20:26.697Z,20.81
2016-12-07T02:20:41.135Z,20.78
2016-12-07T02:20:55.546Z,20.72
2016-12-07T02:21:09.961Z,20.75
2016-12-07T02:21:24.310Z,20.72
2016-12-07T02:21:38.658Z,20.71
2016-12-07T02:21:52.960Z,20.61
2016-12-07T02:22:07.274Z,20.6
2016-12-07T02:22:21.677Z,20.76
2016-12-07T02:22:36.017Z,20.68
2016-12-07T02:22:50.432Z,20.64
2016-12-07T02:23:04.754Z,20.61
2016-12-07T02:23:19.079Z,20.72
2016-12-07T02:23:33.430Z,20.64
2016-12-07T02:23:47.865Z,20.72
2016-12-07T02:24:02.163Z,20.66
2016-12-07T02:24:16.552Z,20.71
2016-12-07T02:24:30.896Z,20.58
2016-12-07T02:24:45.288Z,20.63
2016-12-07T02:24:59.686Z,20.63
2016-12-07T02:25:14.089Z,20.67
2016-12-07T02:25:28.421Z,20.64
2016-12-07T02:25:42.751Z,20.66
2016-12-07T02:25:57.101Z,20.67
2016-12-07T02:26:11.536Z,20.72
2016-12-07T02:26:26.225Z,20.83
2016-12-07T02:26:40.568Z,20.83
2016-12-07T02:26:55.640Z,20.79
2016-12-07T02:27:09.975Z,20.83
2016-12-07T02:27:24.430Z,20.83
2016-12-07T02:27:38.769Z,20.85
2016-12-07T02:27:53.053Z,20.86
2016-12-07T02:28:07.425Z,20.91
2016-12-07T02:28:21.773Z,20.79
2016-12-07T02:28:36.162Z,20.86
2016-12-07T02:28:50.522Z,20.78
2016-12-07T02:29:04.833Z,20.86
2016-12-07T02:29:19.188Z,20.82
2016-12-07T02:29:33.558Z,20.82
2016-12-07T02:29:47.898Z,20.81
2016-12-07T02:30:02.251Z,20.83
2016-12-07T02:30:16.640Z,20.76
2016-12-07T02:30:31.015Z,20.82
2016-12-07T02:30:45.368Z,20.82
2016-12-07T02:30:59.719Z,20.79
2016-12-07T02:31:14.114Z,20.81
2016-12-07T02:31:28.516Z,20.86
2016-12-07T02:31:42.831Z,20.74
2016-12-07T02:31:57.257Z,20.81
2016-12-07T02:32:11.642Z,20.74
2016-12-07T02:32:26.001Z,20.68
2016-12-07T02:32:40.427Z,20.67
2016-12-07T02:32:54.772Z,20.63
2016-12-07T02:33:09.163Z,20.71
2016-12-07T02:33:23.511Z,20.71
2016-12-07T02:33:37.908Z,20.66
2016-12-07T02:33:52.247Z,20.71
2016-12-07T02:34:06.671Z,20.68
2016-12-07T02:34:21.049Z,20.6
2016-12-07T02:34:35.517Z,20.67
2016-12-07T02:34:49.872Z,20.6
2016-12-07T02:35:04.269Z,20.78
2016-12-07T02:35:18.704Z,20.72
2016-12-07T02:35:33.052Z,20.74
2016-12-07T02:35:47.411Z,20.63
2016-12-07T02:36:01.835Z,20.61
2016-12-07T02:36:16.215Z,20.6
2016-12-07T02:36:30.536Z,20.6
2016-12-07T02:36:44.864Z,20.64
2016-12-07T02:36:59.338Z,20.63
2016-12-07T02:37:13.825Z,20.67
2016-12-07T02:37:28.226Z,20.66
2016-12-07T02:37:42.554Z,20.71
2016-12-07T02:37:56.992Z,20.6
2016-12-07T02:38:11.333Z,20.67
2016-12-07T02:38:25.684Z,20.67
2016-12-07T02:38:40.026Z,20.68
2016-12-07T02:38:54.352Z,20.64
2016-12-07T02:39:08.733Z,20.66
2016-12-07T02:39:23.053Z,20.76
2016-12-07T02:39:37.451Z,20.71
2016-12-07T02:39:51.881Z,20.58
2016-12-07T02:40:06.195Z,20.58
2016-12-07T02:40:20.555Z,20.56
2016-12-07T02:40:34.953Z,20.57
2016-12-07T02:40:49.331Z,20.72
2016-12-07T02:41:03.679Z,20.75
2016-12-07T02:41:18.035Z,20.64
2016-12-07T02:41:32.969Z,20.64
2016-12-07T02:41:47.360Z,20.72
2016-12-07T02:42:01.757Z,20.63
2016-12-07T02:42:16.099Z,20.64
2016-12-07T02:42:30.518Z,20.58
2016-12-07T02:42:44.866Z,20.63
2016-12-07T02:42:59.217Z,20.64
2016-12-07T02:43:13.532Z,20.63
2016-12-07T02:43:27.862Z,20.58
2016-12-07T02:43:42.203Z,20.58
2016-12-07T02:43:56.495Z,20.63
2016-12-07T02:44:10.750Z,20.66
2016-12-07T02:44:25.091Z,20.58
2016-12-07T02:44:39.392Z,20.64
2016-12-07T02:44:53.818Z,20.61
2016-12-07T02:45:08.219Z,20.54
2016-12-07T02:45:22.531Z,20.72
2016-12-07T02:45:36.920Z,20.56
2016-12-07T02:45:51.384Z,20.57
2016-12-07T02:46:05.692Z,20.68
2016-12-07T02:46:20.010Z,20.71
2016-12-07T02:46:34.318Z,20.63
2016-12-07T02:46:48.652Z,20.74
2016-12-07T02:47:03.070Z,20.61
2016-12-07T02:47:17.404Z,20.78
2016-12-07T02:47:31.792Z,20.81
2016-12-07T02:47:46.151Z,20.79
2016-12-07T02:48:00.592Z,20.85
2016-12-07T02:48:14.944Z,20.83
2016-12-07T02:48:29.227Z,20.74
2016-12-07T02:48:43.634Z,20.81
2016-12-07T02:48:57.966Z,20.76
2016-12-07T02:49:12.309Z,20.76
2016-12-07T02:49:26.668Z,20.74
2016-12-07T02:49:40.992Z,20.72
2016-12-07T02:49:55.438Z,20.61
2016-12-07T02:50:09.829Z,20.61
2016-12-07T02:50:24.272Z,20.56
2016-12-07T02:50:38.689Z,20.53
2016-12-07T02:50:53.042Z,20.67
2016-12-07T02:51:07.435Z,20.63
2016-12-07T02:51:21.779Z,20.61
2016-12-07T02:51:36.126Z,20.57
2016-12-07T02:51:50.524Z,20.56
2016-12-07T02:52:04.905Z,20.57
2016-12-07T02:52:19.265Z,20.44
2016-12-07T02:52:33.605Z,20.6
2016-12-07T02:52:47.994Z,20.61
2016-12-07T02:53:02.363Z,20.51
2016-12-07T02:53:16.774Z,20.49
2016-12-07T02:53:31.173Z,20.46
2016-12-07T02:53:45.492Z,20.51
2016-12-07T02:53:59.865Z,20.53
2016-12-07T02:54:14.289Z,20.49
2016-12-07T02:54:28.678Z,20.54
2016-12-07T02:54:43.116Z,20.53
2016-12-07T02:54:57.571Z,20.48
2016-12-07T02:55:11.954Z,20.48
2016-12-07T02:55:26.270Z,20.49
2016-12-07T02:55:40.600Z,20.49
2016-12-07T02:55:54.913Z,20.48
2016-12-07T02:56:09.259Z,20.57
2016-12-07T02:56:23.595Z,20.49
2016-12-07T02:56:38.316Z,20.53
2016-12-07T02:56:52.695Z,20.44
2016-12-07T02:57:07.039Z,20.49
2016-12-07T02:57:21.433Z,20.48
2016-12-07T02:57:35.802Z,20.51
2016-12-07T02:57:50.138Z,20.53
2016-12-07T02:58:04.492Z,20.44
2016-12-07T02:58:18.808Z,20.42
2016-12-07T02:58:33.126Z,20.46
2016-12-07T02:58:47.453Z,20.44
2016-12-07T02:59:01.778Z,20.4
2016-12-07T02:59:16.140Z,20.35
2016-12-07T02:59:30.472Z,20.37
2016-12-07T02:59:44.794Z,20.34
2016-12-07T02:59:59.181Z,20.34
2016-12-07T03:00:13.538Z,20.34
2016-12-07T03:00:27.899Z,20.27
2016-12-07T03:00:42.224Z,20.3
2016-12-07T03:00:56.568Z,20.3
2016-12-07T03:01:10.922Z,20.34
2016-12-07T03:01:25.311Z,20.22
2016-12-07T03:01:39.667Z,20.18
2016-12-07T03:01:54.033Z,20.25
2016-12-07T03:02:08.482Z,20.15
2016-12-07T03:02:22.831Z,20.23
2016-12-07T03:02:37.163Z,20.15
2016-12-07T03:02:51.522Z,20.16
2016-12-07T03:03:05.880Z,20.16
2016-12-07T03:03:20.225Z,20.18
2016-12-07T03:03:34.608Z,20.15
2016-12-07T03:03:49.007Z,20.2
2016-12-07T03:04:03.363Z,20.15
2016-12-07T03:04:17.786Z,20.2
2016-12-07T03:04:32.145Z,20.19
2016-12-07T03:04:46.604Z,20.19
2016-12-07T03:05:01.007Z,20.2
2016-12-07T03:05:15.351Z,20.2
2016-12-07T03:05:29.745Z,20.12
2016-12-07T03:05:44.063Z,20.2
2016-12-07T03:05:58.399Z,20.19
2016-12-07T03:06:12.757Z,20.11
2016-12-07T03:06:27.125Z,20.15